createdAt,value
2022-08-25T00:00:01.635Z,33.28
2022-08-25T00:01:58.149Z,31.02
2022-08-25T00:03:49.742Z,37.72
2022-08-25T00:05:40.948Z,32.90
2022-08-25T00:07:31.967Z,34.10
2022-08-25T00:09:27.012Z,28.08
2022-08-25T00:11:21.154Z,32.40
2022-08-25T00:13:13.106Z,29.17
2022-08-25T00:15:05.606Z,33.55
2022-08-25T00:18:52.986Z,32.92
2022-08-25T00:20:47.158Z,33.70
2022-08-25T00:22:39.703Z,29.23
2022-08-25T00:24:31.317Z,30.95
2022-08-25T00:26:24.305Z,30.58
2022-08-25T00:28:16.569Z,31.98
2022-08-25T00:32:00.239Z,34.05
2022-08-25T00:33:51.960Z,30.65
2022-08-25T00:35:44.182Z,33.53
2022-08-25T00:37:35.347Z,33.28
2022-08-25T00:39:26.965Z,31.92
2022-08-25T00:41:24.999Z,33.88
2022-08-25T00:43:18.166Z,33.67
2022-08-25T00:45:09.761Z,36.60
2022-08-25T00:47:03.520Z,33.17
2022-08-25T00:49:03.662Z,33.13
2022-08-25T00:50:55.073Z,30.67
2022-08-25T00:52:50.901Z,32.60
2022-08-25T00:54:50.693Z,31.85
2022-08-25T00:56:42.038Z,33.95
2022-08-25T00:58:35.284Z,37.23
2022-08-25T01:00:31.953Z,32.05
2022-08-25T01:02:22.689Z,35.08
2022-08-25T01:04:13.343Z,35.45
2022-08-25T01:06:05.833Z,38.10
2022-08-25T01:09:52.526Z,32.63
2022-08-25T01:11:45.323Z,38.25
2022-08-25T01:13:42.927Z,38.58
2022-08-25T01:15:35.258Z,35.60
2022-08-25T01:17:35.014Z,37.05
2022-08-25T01:19:28.208Z,34.75
2022-08-25T01:21:23.405Z,39.03
2022-08-25T01:23:14.524Z,34.63
2022-08-25T01:25:16.890Z,34.67
2022-08-25T01:27:08.905Z,35.05
2022-08-25T01:29:04.523Z,34.15
2022-08-25T01:30:55.989Z,38.50
2022-08-25T01:32:47.552Z,33.15
2022-08-25T01:34:41.961Z,34.53
2022-08-25T01:36:35.606Z,39.95
2022-08-25T01:38:26.289Z,32.22
2022-08-25T01:40:17.590Z,35.13
2022-08-25T01:42:32.755Z,33.47
2022-08-25T01:44:24.175Z,36.03
2022-08-25T01:46:15.101Z,37.03
2022-08-25T01:48:07.723Z,34.78
2022-08-25T01:49:58.415Z,33.63
2022-08-25T01:51:56.542Z,38.58
2022-08-25T01:53:47.559Z,37.03
2022-08-25T01:55:38.622Z,34.45
2022-08-25T01:57:29.793Z,31.70
2022-08-25T01:59:24.314Z,36.53
2022-08-25T02:01:20.253Z,34.22
2022-08-25T02:03:17.546Z,40.72
2022-08-25T02:05:11.437Z,37.70
2022-08-25T02:07:07.821Z,39.85
2022-08-25T02:09:03.263Z,44.10
2022-08-25T02:10:54.679Z,38.70
2022-08-25T02:12:45.272Z,37.90
2022-08-25T02:14:36.540Z,39.55
2022-08-25T02:16:32.193Z,33.88
2022-08-25T02:18:24.175Z,34.42
2022-08-25T02:20:14.790Z,34.78
2022-08-25T02:22:07.094Z,35.70
2022-08-25T02:23:57.450Z,36.05
2022-08-25T02:25:48.802Z,39.30
2022-08-25T02:27:39.588Z,38.38
2022-08-25T02:29:30.525Z,39.35
2022-08-25T02:31:24.540Z,34.97
2022-08-25T02:33:15.224Z,34.53
2022-08-25T02:35:08.190Z,38.63
2022-08-25T02:36:58.946Z,35.67
2022-08-25T02:38:51.314Z,34.53
2022-08-25T02:40:42.319Z,32.95
2022-08-25T02:42:33.489Z,34.35
2022-08-25T02:44:24.268Z,33.08
2022-08-25T02:46:16.759Z,30.25
2022-08-25T02:48:07.783Z,34.70
2022-08-25T02:49:58.631Z,31.15
2022-08-25T02:51:49.353Z,32.85
2022-08-25T02:53:42.897Z,33.80
2022-08-25T02:55:35.337Z,36.08
2022-08-25T02:57:26.286Z,31.45
2022-08-25T02:59:17.395Z,28.42
2022-08-25T03:01:10.226Z,30.88
2022-08-25T03:03:01.042Z,31.92
2022-08-25T03:04:52.020Z,27.80
2022-08-25T03:06:46.764Z,35.00
2022-08-25T03:08:37.801Z,31.77
2022-08-25T03:10:28.830Z,27.90
2022-08-25T03:12:21.495Z,29.80
2022-08-25T03:14:12.891Z,27.55
2022-08-25T03:16:11.212Z,28.20
2022-08-25T03:18:04.147Z,28.83
2022-08-25T03:19:56.030Z,27.70
2022-08-25T03:21:46.745Z,29.15
2022-08-25T03:23:38.001Z,25.73
2022-08-25T03:25:29.187Z,27.25
2022-08-25T03:27:21.543Z,28.80
2022-08-25T03:29:12.491Z,24.42
2022-08-25T03:31:03.583Z,26.42
2022-08-25T03:32:54.249Z,28.05
2022-08-25T03:34:45.148Z,26.38
2022-08-25T03:36:35.990Z,28.23
2022-08-25T03:38:28.350Z,26.42
2022-08-25T03:40:19.579Z,27.85
2022-08-25T03:42:10.585Z,27.27
2022-08-25T03:44:05.239Z,24.73
2022-08-25T03:45:55.997Z,28.52
2022-08-25T03:47:48.541Z,22.83
2022-08-25T03:49:39.472Z,24.17
2022-08-25T03:51:34.607Z,21.30
2022-08-25T03:53:25.561Z,21.60
2022-08-25T03:55:16.383Z,22.70
2022-08-25T03:57:07.281Z,16.80
2022-08-25T03:58:58.248Z,21.52
2022-08-25T04:00:50.616Z,24.27
2022-08-25T04:02:42.160Z,15.70
2022-08-25T04:04:33.504Z,24.90
2022-08-25T04:06:24.868Z,15.38
2022-08-25T04:08:16.637Z,17.38
2022-08-25T04:10:11.109Z,18.55
2022-08-25T04:12:01.924Z,17.50
2022-08-25T04:13:56.073Z,17.25
2022-08-25T04:15:47.000Z,18.70
2022-08-25T04:17:40.639Z,15.93
2022-08-25T04:19:31.596Z,23.90
2022-08-25T04:21:23.773Z,15.73
2022-08-25T04:25:07.213Z,18.23
2022-08-25T04:26:58.493Z,17.80
2022-08-25T04:28:50.241Z,16.92
2022-08-25T04:30:42.615Z,21.00
2022-08-25T04:34:30.488Z,22.35
2022-08-25T04:36:23.430Z,18.40
2022-08-25T04:38:14.490Z,20.10
2022-08-25T04:40:06.269Z,19.25
2022-08-25T04:41:57.241Z,19.67
2022-08-25T04:43:48.703Z,18.30
2022-08-25T04:45:40.156Z,18.60
2022-08-25T04:47:30.958Z,20.33
2022-08-25T04:49:22.085Z,16.75
2022-08-25T04:51:18.184Z,18.67
2022-08-25T04:53:09.790Z,29.38
2022-08-25T04:55:00.622Z,26.25
2022-08-25T04:56:54.418Z,20.83
2022-08-25T04:58:49.286Z,19.75
2022-08-25T05:00:41.115Z,17.40
2022-08-25T05:02:31.940Z,20.83
2022-08-25T05:04:28.311Z,19.67
2022-08-25T05:06:21.987Z,20.23
2022-08-25T05:10:03.498Z,22.00
2022-08-25T05:11:54.854Z,20.63
2022-08-25T05:13:51.432Z,18.43
2022-08-25T05:15:43.150Z,19.45
2022-08-25T05:17:33.711Z,17.83
2022-08-25T05:19:25.249Z,17.65
2022-08-25T05:21:19.725Z,16.92
2022-08-25T05:23:12.070Z,18.92
2022-08-25T05:25:02.754Z,17.65
2022-08-25T05:26:53.801Z,17.77
2022-08-25T05:28:44.928Z,19.13
2022-08-25T05:30:39.637Z,18.48
2022-08-25T05:32:30.512Z,20.55
2022-08-25T05:34:21.503Z,18.42
2022-08-25T05:36:15.258Z,17.52
2022-08-25T05:38:06.996Z,17.35
2022-08-25T05:41:50.605Z,22.08
2022-08-25T05:43:43.575Z,19.67
2022-08-25T05:45:34.741Z,25.30
2022-08-25T05:47:25.767Z,23.83
2022-08-25T05:49:16.920Z,20.92
2022-08-25T05:51:13.617Z,23.95
2022-08-25T05:53:04.336Z,28.75
2022-08-25T05:54:55.313Z,22.27
2022-08-25T05:56:47.168Z,17.77
2022-08-25T06:00:29.517Z,26.02
2022-08-25T06:02:20.402Z,22.02
2022-08-25T06:04:11.355Z,26.92
2022-08-25T06:06:06.647Z,25.13
2022-08-25T06:07:57.517Z,18.65
2022-08-25T06:09:48.642Z,23.40
2022-08-25T06:11:41.216Z,27.08
2022-08-25T06:13:33.683Z,20.00
2022-08-25T06:17:16.113Z,18.50
2022-08-25T06:19:09.566Z,21.65
2022-08-25T06:21:06.890Z,23.65
2022-08-25T06:22:58.451Z,23.20
2022-08-25T06:24:49.729Z,21.88
2022-08-25T06:26:40.254Z,24.33
2022-08-25T06:28:31.186Z,26.27
2022-08-25T06:30:28.722Z,28.40
2022-08-25T06:32:20.003Z,22.20
2022-08-25T06:34:11.608Z,21.77
2022-08-25T06:36:03.111Z,19.48
2022-08-25T06:39:45.482Z,27.63
2022-08-25T06:41:37.272Z,26.63
2022-08-25T06:43:28.365Z,24.23
2022-08-25T06:45:19.373Z,28.15
2022-08-25T06:47:11.725Z,25.20
2022-08-25T06:49:02.778Z,26.17
2022-08-25T06:50:53.357Z,18.58
2022-08-25T06:52:44.344Z,19.88
2022-08-25T06:54:35.564Z,20.75
2022-08-25T06:56:26.679Z,22.88
2022-08-25T06:58:17.230Z,22.98
2022-08-25T07:00:10.050Z,23.00
2022-08-25T07:02:04.652Z,25.48
2022-08-25T07:04:00.628Z,20.65
2022-08-25T07:05:55.899Z,26.38
2022-08-25T07:07:46.601Z,22.75
2022-08-25T07:09:39.224Z,22.27
2022-08-25T07:11:30.216Z,19.95
2022-08-25T07:13:21.135Z,19.17
2022-08-25T07:15:27.068Z,19.42
2022-08-25T07:17:17.734Z,21.38
2022-08-25T07:19:11.342Z,24.33
2022-08-25T07:21:05.864Z,21.80
2022-08-25T07:23:00.213Z,18.45
2022-08-25T07:24:51.926Z,21.63
2022-08-25T07:26:43.697Z,17.67
2022-08-25T07:28:34.363Z,17.75
2022-08-25T07:30:25.952Z,24.08
2022-08-25T07:32:16.844Z,18.35
2022-08-25T07:34:08.621Z,22.23
2022-08-25T07:36:02.093Z,23.58
2022-08-25T07:37:55.101Z,17.20
2022-08-25T07:39:49.019Z,17.30
2022-08-25T07:41:52.247Z,19.27
2022-08-25T07:43:45.516Z,17.02
2022-08-25T07:45:49.600Z,15.60
2022-08-25T07:47:42.625Z,17.38
2022-08-25T07:49:35.932Z,15.70
2022-08-25T07:51:32.005Z,15.60
2022-08-25T07:53:22.783Z,16.38
2022-08-25T07:55:17.843Z,13.60
2022-08-25T07:57:09.783Z,16.35
2022-08-25T07:59:00.796Z,15.35
2022-08-25T08:00:51.742Z,13.48
2022-08-25T08:02:43.333Z,18.10
2022-08-25T08:04:36.519Z,13.70
2022-08-25T08:06:27.413Z,16.92
2022-08-25T08:08:19.693Z,13.30
2022-08-25T08:12:22.584Z,10.48
2022-08-25T08:14:14.196Z,21.17
2022-08-25T08:16:09.721Z,17.25
2022-08-25T08:18:00.812Z,15.68
2022-08-25T08:19:51.941Z,17.75
2022-08-25T08:21:42.793Z,14.02
2022-08-25T08:23:34.655Z,9.77
2022-08-25T08:25:27.497Z,16.65
2022-08-25T08:27:18.834Z,15.32
2022-08-25T08:29:09.507Z,16.58
2022-08-25T08:31:00.945Z,13.43
2022-08-25T08:33:10.006Z,15.20
2022-08-25T08:35:01.700Z,14.82
2022-08-25T08:36:52.687Z,13.32
2022-08-25T08:38:46.728Z,10.93
2022-08-25T08:40:52.741Z,15.55
2022-08-25T08:42:59.872Z,13.55
2022-08-25T08:45:24.690Z,12.32
2022-08-25T08:47:26.209Z,14.35
2022-08-25T08:49:27.994Z,18.95
2022-08-25T08:51:23.394Z,10.68
2022-08-25T08:53:22.183Z,9.55
2022-08-25T08:55:23.330Z,16.08
2022-08-25T08:57:20.415Z,18.88
2022-08-25T08:59:17.617Z,7.80
2022-08-25T09:01:13.528Z,11.65
2022-08-25T09:03:09.784Z,16.17
2022-08-25T09:05:06.708Z,10.50
2022-08-25T09:06:58.964Z,11.00
2022-08-25T09:08:59.098Z,9.18
2022-08-25T09:11:01.344Z,10.65
2022-08-25T09:13:05.780Z,12.77
2022-08-25T09:15:14.967Z,9.95
2022-08-25T09:17:15.051Z,10.00
2022-08-25T09:19:33.467Z,14.80
2022-08-25T09:21:33.509Z,17.52
2022-08-25T09:23:36.030Z,7.25
2022-08-25T09:25:53.277Z,10.23
2022-08-25T09:27:58.637Z,11.70
2022-08-25T09:30:01.531Z,11.30
2022-08-25T09:32:00.201Z,12.02
2022-08-25T09:33:55.914Z,8.57
2022-08-25T09:35:49.556Z,11.80
2022-08-25T09:37:40.479Z,11.10
2022-08-25T09:39:31.352Z,12.63
2022-08-25T09:41:45.015Z,12.10
2022-08-25T09:43:42.107Z,7.80
2022-08-25T09:45:40.608Z,9.02
2022-08-25T09:47:44.854Z,11.10
2022-08-25T09:49:40.262Z,10.77
2022-08-25T09:51:37.872Z,9.02
2022-08-25T09:53:33.664Z,8.15
2022-08-25T09:55:32.451Z,10.95
2022-08-25T09:57:34.384Z,9.73
2022-08-25T09:59:34.267Z,7.27
2022-08-25T10:01:26.362Z,11.87
2022-08-25T10:03:24.738Z,11.48
2022-08-25T10:05:23.436Z,8.35
2022-08-25T10:07:26.410Z,8.27
2022-08-25T10:09:28.513Z,8.52
2022-08-25T10:11:35.014Z,10.85
2022-08-25T10:13:38.076Z,16.17
2022-08-25T10:15:33.763Z,11.15
2022-08-25T10:17:29.435Z,8.85
2022-08-25T10:19:27.160Z,12.30
2022-08-25T10:21:17.837Z,8.57
2022-08-25T10:23:13.151Z,14.15
2022-08-25T10:25:06.075Z,8.15
2022-08-25T10:27:07.497Z,12.93
2022-08-25T10:29:11.232Z,11.35
2022-08-25T10:31:13.968Z,4.88
2022-08-25T10:33:19.049Z,10.50
2022-08-25T10:35:15.321Z,9.57
2022-08-25T10:37:20.927Z,11.88
2022-08-25T10:39:36.394Z,11.82
2022-08-25T10:41:53.343Z,11.30
2022-08-25T10:43:53.035Z,8.32
2022-08-25T10:45:49.058Z,7.80
2022-08-25T10:48:25.445Z,8.35
2022-08-25T10:50:29.135Z,5.45
2022-08-25T10:52:31.198Z,8.52
2022-08-25T10:54:35.318Z,9.38
2022-08-25T10:56:31.223Z,10.52
2022-08-25T10:58:33.368Z,12.32
2022-08-25T11:00:34.048Z,11.10
2022-08-25T11:03:07.660Z,10.80
2022-08-25T11:05:05.141Z,9.63
2022-08-25T11:07:03.121Z,10.50
2022-08-25T11:09:00.550Z,8.07
2022-08-25T11:10:59.868Z,10.38
2022-08-25T11:12:55.975Z,8.80
2022-08-25T11:14:53.260Z,7.35
2022-08-25T11:16:52.105Z,13.38
2022-08-25T11:18:55.917Z,10.48
2022-08-25T11:21:05.857Z,8.35
2022-08-25T11:23:11.348Z,8.35
2022-08-25T11:25:11.599Z,8.68
2022-08-25T11:27:08.321Z,13.77
2022-08-25T11:29:12.330Z,8.02
2022-08-25T11:31:04.478Z,18.27
2022-08-25T11:32:56.858Z,14.27
2022-08-25T11:34:49.925Z,8.82
2022-08-25T11:36:49.117Z,17.98
2022-08-25T11:38:54.719Z,28.15
2022-08-25T11:40:59.278Z,11.50
2022-08-25T11:43:09.275Z,10.00
2022-08-25T11:45:12.729Z,12.63
2022-08-25T11:47:33.281Z,12.82
2022-08-25T11:49:51.848Z,9.27
2022-08-25T11:51:46.851Z,9.93
2022-08-25T11:53:42.117Z,10.93
2022-08-25T11:55:49.391Z,10.07
2022-08-25T11:57:42.103Z,9.20
2022-08-25T12:00:10.404Z,8.35
2022-08-25T12:02:01.376Z,11.85
2022-08-25T12:04:12.495Z,7.75
2022-08-25T12:06:25.441Z,5.80
2022-08-25T12:08:35.872Z,9.57
2022-08-25T12:10:58.916Z,12.13
2022-08-25T12:13:27.064Z,10.90
2022-08-25T12:15:22.740Z,12.93
2022-08-25T12:17:36.622Z,8.88
2022-08-25T12:19:46.984Z,9.05
2022-08-25T12:21:39.886Z,12.25
2022-08-25T12:23:43.017Z,16.02
2022-08-25T12:25:46.943Z,8.65
2022-08-25T12:27:51.105Z,14.13
2022-08-25T12:29:47.163Z,8.35
2022-08-25T12:32:04.881Z,20.05
2022-08-25T12:34:15.916Z,8.88
2022-08-25T12:36:11.214Z,20.70
2022-08-25T12:38:07.715Z,12.18
2022-08-25T12:40:02.865Z,10.10
2022-08-25T12:41:59.706Z,15.57
2022-08-25T12:44:08.839Z,7.88
2022-08-25T12:46:37.638Z,8.57
2022-08-25T12:49:01.581Z,8.27
2022-08-25T12:50:58.970Z,10.75
2022-08-25T12:52:49.851Z,8.77
2022-08-25T12:54:50.455Z,8.77
2022-08-25T12:56:47.655Z,10.75
2022-08-25T12:59:00.964Z,10.25
2022-08-25T13:01:22.628Z,16.00
2022-08-25T13:04:02.804Z,7.00
2022-08-25T13:06:36.398Z,8.30
2022-08-25T13:09:04.518Z,18.08
2022-08-25T13:11:04.233Z,12.57
2022-08-25T13:13:04.735Z,15.00
2022-08-25T13:14:58.345Z,16.80
2022-08-25T13:16:57.288Z,11.57
2022-08-25T13:18:51.362Z,10.50
2022-08-25T13:20:44.117Z,15.05
2022-08-25T13:22:37.002Z,14.52
2022-08-25T13:24:40.246Z,15.70
2022-08-25T13:26:37.268Z,12.18
2022-08-25T13:28:31.923Z,10.75
2022-08-25T13:30:29.209Z,9.25
2022-08-25T13:32:32.060Z,13.27
2022-08-25T13:34:34.558Z,11.25
2022-08-25T13:36:29.094Z,19.08
2022-08-25T13:38:20.031Z,11.35
2022-08-25T13:40:14.307Z,16.25
2022-08-25T13:42:15.416Z,11.68
2022-08-25T13:44:05.954Z,12.23
2022-08-25T13:45:58.273Z,11.70
2022-08-25T13:49:47.847Z,12.68
2022-08-25T13:51:50.877Z,13.05
2022-08-25T13:53:47.833Z,7.10
2022-08-25T13:55:52.189Z,9.38
2022-08-25T13:57:44.798Z,12.98
2022-08-25T13:59:40.556Z,19.05
2022-08-25T14:01:48.372Z,9.93
2022-08-25T14:03:45.708Z,18.23
2022-08-25T14:05:41.020Z,11.77
2022-08-25T14:07:34.066Z,10.55
2022-08-25T14:09:28.320Z,13.40
2022-08-25T14:11:30.649Z,10.52
2022-08-25T14:13:31.508Z,14.70
2022-08-25T14:15:32.194Z,6.63
2022-08-25T14:17:38.154Z,5.80
2022-08-25T14:19:31.415Z,15.55
2022-08-25T14:21:25.536Z,12.65
2022-08-25T14:23:19.688Z,7.72
2022-08-25T14:25:11.231Z,9.73
2022-08-25T14:27:02.724Z,13.20
2022-08-25T14:28:53.349Z,12.77
2022-08-25T14:30:49.047Z,10.70
2022-08-25T14:32:41.281Z,10.68
2022-08-25T14:34:36.919Z,18.60
2022-08-25T14:36:30.738Z,13.93
2022-08-25T14:38:22.790Z,8.95
2022-08-25T14:42:05.001Z,13.25
2022-08-25T14:43:58.044Z,9.40
2022-08-25T14:45:49.548Z,8.23
2022-08-25T14:47:42.776Z,14.25
2022-08-25T14:49:41.087Z,11.40
2022-08-25T14:51:33.600Z,12.60
2022-08-25T14:53:27.987Z,19.77
2022-08-25T14:55:31.846Z,17.15
2022-08-25T14:57:24.059Z,15.05
2022-08-25T14:59:15.615Z,17.42
2022-08-25T15:01:07.095Z,14.57
2022-08-25T15:02:59.196Z,15.93
2022-08-25T15:04:57.273Z,17.25
2022-08-25T15:06:58.109Z,24.10
2022-08-25T15:08:49.009Z,19.40
2022-08-25T15:10:40.403Z,22.02
2022-08-25T15:12:46.487Z,21.90
2022-08-25T15:14:38.729Z,19.90
2022-08-25T15:16:36.419Z,22.02
2022-08-25T15:18:28.763Z,24.80
2022-08-25T15:20:19.448Z,24.02
2022-08-25T15:22:10.757Z,33.70
2022-08-25T15:24:01.316Z,24.95
2022-08-25T15:25:55.923Z,29.20
2022-08-25T15:27:46.382Z,27.73
2022-08-25T15:29:37.518Z,28.58
2022-08-25T15:31:28.278Z,31.75
2022-08-25T15:33:19.832Z,37.33
2022-08-25T15:35:12.471Z,31.40
2022-08-25T15:37:10.282Z,37.05
2022-08-25T15:39:01.834Z,32.55
2022-08-25T15:40:54.639Z,35.03
2022-08-25T15:42:45.954Z,39.53
2022-08-25T15:44:37.016Z,36.35
2022-08-25T15:46:30.323Z,40.03
2022-08-25T15:48:21.255Z,41.13
2022-08-25T15:50:17.546Z,45.97
2022-08-25T15:52:08.385Z,44.80
2022-08-25T15:53:59.497Z,39.92
2022-08-25T15:55:50.416Z,44.05
2022-08-25T15:57:44.696Z,43.15
2022-08-25T15:59:35.172Z,37.40
2022-08-25T16:01:28.046Z,35.35
2022-08-25T16:03:21.481Z,40.97
2022-08-25T16:05:16.380Z,42.85
2022-08-25T16:07:07.399Z,42.67
2022-08-25T16:08:59.318Z,44.97
2022-08-25T16:10:50.037Z,38.03
2022-08-25T16:12:42.762Z,40.13
2022-08-25T16:14:33.409Z,40.28
2022-08-25T16:16:28.142Z,40.63
2022-08-25T16:18:18.867Z,43.78
2022-08-25T16:20:12.611Z,37.25
2022-08-25T16:22:09.008Z,36.13
2022-08-25T16:24:07.523Z,44.33
2022-08-25T16:25:58.320Z,37.65
2022-08-25T16:27:49.629Z,43.25
2022-08-25T16:29:42.224Z,39.88
2022-08-25T16:31:33.245Z,42.90
2022-08-25T16:33:24.329Z,35.53
2022-08-25T16:37:08.339Z,39.00
2022-08-25T16:39:00.112Z,37.72
2022-08-25T16:40:51.270Z,40.47
2022-08-25T16:42:42.637Z,36.47
2022-08-25T16:44:33.545Z,35.80
2022-08-25T16:46:24.483Z,36.20
2022-08-25T16:48:15.418Z,36.30
2022-08-25T16:50:08.538Z,37.78
2022-08-25T16:52:01.971Z,27.73
2022-08-25T16:55:46.744Z,35.80
2022-08-25T16:57:38.415Z,38.00
2022-08-25T16:59:29.191Z,33.92
2022-08-25T17:01:20.948Z,40.28
2022-08-25T17:03:11.633Z,41.15
2022-08-25T17:05:02.808Z,43.92
2022-08-25T17:06:53.380Z,34.10
2022-08-25T17:08:44.201Z,36.47
2022-08-25T17:10:38.590Z,37.70
2022-08-25T17:12:29.567Z,31.08
2022-08-25T17:14:20.381Z,36.78
2022-08-25T17:16:12.393Z,34.85
2022-08-25T17:18:05.795Z,34.75
2022-08-25T17:19:56.769Z,44.88
2022-08-25T17:21:47.952Z,34.53
2022-08-25T17:23:43.420Z,33.78
2022-08-25T17:25:37.152Z,34.85
2022-08-25T17:27:32.201Z,29.42
2022-08-25T17:29:23.199Z,37.50
2022-08-25T17:31:15.077Z,29.48
2022-08-25T17:33:05.930Z,30.15
2022-08-25T17:34:57.073Z,26.40
2022-08-25T17:36:48.485Z,25.08
2022-08-25T17:38:40.213Z,30.63
2022-08-25T17:40:33.292Z,33.63
2022-08-25T17:42:30.156Z,36.60
2022-08-25T17:44:21.254Z,33.13
2022-08-25T17:46:13.079Z,30.98
2022-08-25T17:48:04.876Z,32.85
2022-08-25T17:49:55.703Z,28.13
2022-08-25T17:51:46.529Z,30.88
2022-08-25T17:53:37.568Z,27.55
2022-08-25T17:55:29.013Z,29.33
2022-08-25T17:57:21.285Z,37.95
2022-08-25T17:59:13.501Z,24.92
2022-08-25T18:02:55.891Z,25.63
2022-08-25T18:04:46.997Z,34.88
2022-08-25T18:06:38.775Z,30.80
2022-08-25T18:08:35.003Z,26.00
2022-08-25T18:10:26.294Z,36.92
2022-08-25T18:12:17.259Z,31.17
2022-08-25T18:14:08.085Z,36.63
2022-08-25T18:16:04.100Z,29.83
2022-08-25T18:17:55.684Z,30.13
2022-08-25T18:19:48.453Z,29.30
2022-08-25T18:21:40.119Z,27.65
2022-08-25T18:23:31.139Z,37.30
2022-08-25T18:25:21.947Z,30.60
2022-08-25T18:27:15.217Z,34.67
2022-08-25T18:29:05.978Z,30.08
2022-08-25T18:30:57.589Z,32.42
2022-08-25T18:32:50.803Z,31.43
2022-08-25T18:34:41.601Z,33.35
2022-08-25T18:36:33.055Z,32.70
2022-08-25T18:38:30.000Z,40.03
2022-08-25T18:40:21.730Z,36.55
2022-08-25T18:42:12.643Z,33.35
2022-08-25T18:44:05.673Z,27.42
2022-08-25T18:45:58.105Z,31.17
2022-08-25T18:47:50.921Z,29.25
2022-08-25T18:49:41.716Z,37.00
2022-08-25T18:51:33.276Z,30.70
2022-08-25T18:53:30.385Z,25.02
2022-08-25T18:55:29.605Z,25.30
2022-08-25T18:57:21.174Z,28.00
2022-08-25T18:59:12.849Z,36.55
2022-08-25T19:01:04.979Z,38.33
2022-08-25T19:02:59.383Z,28.83
2022-08-25T19:04:50.432Z,35.55
2022-08-25T19:06:41.675Z,35.47
2022-08-25T19:08:35.236Z,32.13
2022-08-25T19:10:26.641Z,22.50
2022-08-25T19:12:22.468Z,28.00
2022-08-25T19:14:14.062Z,33.28
2022-08-25T19:16:11.319Z,29.25
2022-08-25T19:18:09.761Z,36.83
2022-08-25T19:20:01.654Z,36.97
2022-08-25T19:21:55.434Z,37.05
2022-08-25T19:23:46.077Z,24.48
2022-08-25T19:25:41.661Z,28.33
2022-08-25T19:27:33.896Z,31.05
2022-08-25T19:29:25.990Z,25.83
2022-08-25T19:31:18.293Z,38.20
2022-08-25T19:33:12.118Z,32.97
2022-08-25T19:35:06.056Z,29.83
2022-08-25T19:36:59.137Z,24.77
2022-08-25T19:38:51.747Z,29.88
2022-08-25T19:40:43.072Z,25.90
2022-08-25T19:42:38.367Z,24.65
2022-08-25T19:44:29.738Z,24.27
2022-08-25T19:46:20.969Z,28.48
2022-08-25T19:48:15.803Z,32.25
2022-08-25T19:50:08.677Z,24.25
2022-08-25T19:52:03.345Z,24.80
2022-08-25T19:53:57.133Z,26.63
2022-08-25T19:55:48.936Z,25.58
2022-08-25T19:57:42.708Z,31.45
2022-08-25T19:59:43.183Z,21.35
2022-08-25T20:01:35.416Z,26.25
2022-08-25T20:03:28.797Z,24.33
2022-08-25T20:05:23.921Z,32.30
2022-08-25T20:07:15.612Z,23.45
2022-08-25T20:09:08.311Z,23.40
2022-08-25T20:11:19.350Z,28.33
2022-08-25T20:13:10.103Z,21.58
2022-08-25T20:15:01.269Z,30.00
2022-08-25T20:16:53.160Z,24.98
2022-08-25T20:18:45.313Z,19.98
2022-08-25T20:20:36.870Z,31.73
2022-08-25T20:22:30.907Z,17.42
2022-08-25T20:24:21.812Z,24.75
2022-08-25T20:26:14.921Z,22.30
2022-08-25T20:28:05.708Z,16.73
2022-08-25T20:30:08.537Z,16.55
2022-08-25T20:31:59.531Z,19.52
2022-08-25T20:33:51.789Z,13.95
2022-08-25T20:35:47.288Z,17.15
2022-08-25T20:37:38.198Z,17.27
2022-08-25T20:39:29.128Z,13.55
2022-08-25T20:41:19.729Z,16.25
2022-08-25T20:43:12.130Z,18.27
2022-08-25T20:46:56.962Z,19.55
2022-08-25T20:48:48.665Z,16.83
2022-08-25T20:50:41.660Z,10.77
2022-08-25T20:52:32.821Z,18.10
2022-08-25T20:54:26.670Z,18.48
2022-08-25T20:56:19.168Z,16.00
2022-08-25T20:58:11.257Z,12.95
2022-08-25T21:00:09.850Z,17.83
2022-08-25T21:02:01.495Z,13.23
2022-08-25T21:03:52.833Z,21.38
2022-08-25T21:05:44.702Z,12.05
2022-08-25T21:07:36.579Z,14.55
2022-08-25T21:09:29.181Z,13.32
2022-08-25T21:11:21.737Z,20.50
2022-08-25T21:13:15.297Z,15.88
2022-08-25T21:15:10.767Z,13.90
2022-08-25T21:17:03.475Z,13.30
2022-08-25T21:18:56.097Z,15.82
2022-08-25T21:20:48.502Z,15.60
2022-08-25T21:24:30.155Z,13.15
2022-08-25T21:26:24.608Z,15.75
2022-08-25T21:28:17.044Z,17.60
2022-08-25T21:30:09.911Z,17.15
2022-08-25T21:32:02.402Z,24.38
2022-08-25T21:33:57.125Z,13.43
2022-08-25T21:35:49.595Z,14.40
2022-08-25T21:39:32.571Z,13.25
2022-08-25T21:41:26.611Z,16.63
2022-08-25T21:43:18.633Z,13.15
2022-08-25T21:45:11.496Z,8.95
2022-08-25T21:47:02.478Z,13.40
2022-08-25T21:48:57.450Z,17.00
2022-08-25T21:51:02.849Z,15.50
2022-08-25T21:52:54.672Z,12.45
2022-08-25T21:54:45.923Z,13.93
2022-08-25T21:56:40.437Z,15.00
2022-08-25T21:58:33.427Z,14.48
2022-08-25T22:00:24.878Z,11.90
2022-08-25T22:02:19.183Z,15.82
2022-08-25T22:04:14.246Z,18.60
2022-08-25T22:06:11.213Z,9.65
2022-08-25T22:08:03.553Z,16.90
2022-08-25T22:09:54.689Z,13.18
2022-08-25T22:11:46.305Z,9.23
2022-08-25T22:13:38.701Z,9.63
2022-08-25T22:15:31.888Z,16.10
2022-08-25T22:17:24.392Z,14.65
2022-08-25T22:19:15.848Z,9.35
2022-08-25T22:21:08.853Z,18.75
2022-08-25T22:22:59.811Z,12.68
2022-08-25T22:24:51.388Z,18.25
2022-08-25T22:26:47.400Z,18.17
2022-08-25T22:28:39.179Z,6.75
2022-08-25T22:30:36.507Z,10.65
2022-08-25T22:32:28.339Z,14.40
2022-08-25T22:34:19.355Z,12.13
2022-08-25T22:36:26.219Z,14.55
2022-08-25T22:38:16.909Z,9.98
2022-08-25T22:40:09.600Z,10.38
2022-08-25T22:43:51.509Z,8.35
2022-08-25T22:45:43.534Z,10.43
2022-08-25T22:47:34.247Z,17.60
2022-08-25T22:49:27.491Z,10.57
2022-08-25T22:51:23.169Z,11.45
2022-08-25T22:53:14.000Z,15.77
2022-08-25T22:55:06.851Z,11.10
2022-08-25T22:57:06.379Z,10.07
2022-08-25T22:58:59.987Z,10.95
2022-08-25T23:00:51.261Z,11.73
2022-08-25T23:02:43.434Z,16.98
2022-08-25T23:04:34.123Z,17.15
2022-08-25T23:06:26.761Z,14.05
2022-08-25T23:08:27.124Z,9.70
2022-08-25T23:10:29.234Z,13.30
2022-08-25T23:12:20.260Z,12.45
2022-08-25T23:14:13.219Z,13.80
2022-08-25T23:16:05.311Z,13.35
2022-08-25T23:19:46.988Z,16.38
2022-08-25T23:21:40.891Z,17.52
2022-08-25T23:23:35.391Z,12.77
2022-08-25T23:25:26.305Z,7.45
2022-08-25T23:27:20.603Z,13.68
2022-08-25T23:29:18.304Z,11.80
2022-08-25T23:31:12.620Z,17.33
2022-08-25T23:33:03.671Z,10.93
2022-08-25T23:34:54.991Z,10.10
2022-08-25T23:36:47.139Z,10.98
2022-08-25T23:38:38.682Z,9.52
2022-08-25T23:40:30.514Z,9.35
2022-08-25T23:42:22.234Z,10.48
2022-08-25T23:44:17.128Z,10.13
2022-08-25T23:46:09.608Z,9.35
2022-08-25T23:48:00.428Z,13.00
2022-08-25T23:49:51.789Z,12.52
2022-08-25T23:51:42.564Z,10.00
2022-08-25T23:53:35.718Z,10.38
2022-08-25T23:55:28.648Z,10.57
2022-08-25T23:57:22.914Z,14.82
2022-08-25T23:59:15.103Z,9.88
